Data for 12/01/2013

Time Sea-Level Adjusted Pressure Absolute Pressure Temperature Relative Humidity Dew Point   
(mb) (inHg) (mb) (inHg) (C) (F) (%) (C) (F)
00:05 1021 30.15 850 25.1 4.1 39.3 70 -0.9 30.5
00:10 1021 30.15 850 25.1 4 39.2 70 -1 30.2
00:15 1021 30.15 850 25.1 4.1 39.3 70 -0.9 30.4
00:20 1021 30.15 850 25.1 4.1 39.5 70 -0.9 30.4
00:25 1021 30.15 850 25.1 4.1 39.4 70 -0.9 30.3
00:30 1021 30.15 850 25.1 4.1 39.3 69 -1.1 30.1
00:35 1020 30.12 850 25.1 4.1 39.4 69 -1.1 30
00:40 1020 30.12 850 25.1 4.1 39.4 69 -1.1 30
00:45 1020 30.12 850 25.1 4.2 39.6 68 -1.2 29.9
00:50 1021 30.15 850 25.1 4.3 39.8 68 -1.1 30
00:55 1021 30.15 850 25.1 4.4 39.8 70 -0.7 30.8
01:00 1021 30.15 850 25.1 4.3 39.7 69 -0.9 30.4
01:05 1021 30.15 850 25.1 4.1 39.5 69 -1 30.3
01:10 1021 30.15 850 25.1 4 39.2 70 -1.1 30.1
01:15 1021 30.15 850 25.1 3.9 39.1 70 -1.1 30
01:20 1021 30.15 850 25.1 3.9 38.9 70 -1.1 30
01:25 1021 30.15 850 25.1 3.8 38.9 70 -1.1 30
01:30 1021 30.15 850 25.1 3.8 38.8 70 -1.1 30
01:35 1021 30.15 850 25.1 3.7 38.6 71 -1.1 30.1
01:40 1021 30.15 850 25.1 3.6 38.4 71 -1.3 29.7
01:45 1021 30.15 850 25.1 3.6 38.5 71 -1.2 29.9
01:50 1021 30.15 850 25.1 3.5 38.4 71 -1.2 29.8
01:55 1020 30.12 850 25.1 3.5 38.2 71 -1.2 29.8
02:00 1020 30.12 850 25.1 3.4 38.1 72 -1.2 29.8
02:05 1020 30.12 850 25.1 3.4 38 72 -1.2 29.9
02:10 1020 30.12 850 25.1 3.4 38.2 70 -1.4 29.4
02:15 1020 30.12 849 25.07 3.5 38.3 70 -1.5 29.3
02:20 1020 30.12 849 25.07 3.5 38.4 69 -1.5 29.3
02:25 1020 30.12 849 25.07 3.6 38.5 69 -1.5 29.3
02:30 1020 30.12 849 25.07 3.6 38.5 71 -1.1 30.1
02:35 1020 30.12 849 25.07 3.6 38.5 71 -1.2 29.8
02:40 1020 30.12 849 25.07 3.5 38.3 70 -1.4 29.4
02:45 1020 30.12 849 25.07 3.4 38.1 69 -1.7 29
02:50 1020 30.12 849 25.07 3.4 38.1 71 -1.4 29.5
02:55 1020 30.12 849 25.07 3.1 37.7 73 -1.3 29.6
03:00 1020 30.12 849 25.07 3.1 37.5 73 -1.4 29.5
03:05 1020 30.12 849 25.07 3.1 37.5 72 -1.5 29.3
03:10 1020 30.12 849 25.07 3.2 37.7 71 -1.6 29.1
03:15 1020 30.12 849 25.07 3.3 37.9 70 -1.7 28.9
03:20 1020 30.12 849 25.07 3.4 38.1 71 -1.4 29.5
03:25 1020 30.12 849 25.07 3.2 37.8 72 -1.3 29.7
03:30 1020 30.12 849 25.07 2.9 37.3 74 -1.3 29.7
03:35 1020 30.12 849 25.07 2.9 37.1 73 -1.5 29.3
03:40 1020 30.12 849 25.07 2.9 37.2 73 -1.4 29.5
03:45 1020 30.12 849 25.07 2.7 36.9 74 -1.4 29.4
03:50 1020 30.12 849 25.07 2.6 36.7 75 -1.5 29.4
03:55 1020 30.12 849 25.07 2.6 36.6 76 -1.2 29.9
04:00 1020 30.12 849 25.07 2.4 36.4 77 -1.3 29.7
04:05 1020 30.12 849 25.07 2.5 36.5 76 -1.3 29.7
04:10 1020 30.12 849 25.07 2.4 36.4 75 -1.6 29
04:15 1020 30.12 849 25.07 2.8 37 72 -1.7 28.9
04:20 1020 30.12 849 25.07 3.1 37.6 71 -1.7 28.9
04:25 1020 30.12 849 25.07 3.2 37.8 71 -1.6 29.1
04:30 1020 30.12 849 25.07 3.2 37.7 72 -1.3 29.6
04:35 1020 30.12 849 25.07 3 37.4 73 -1.3 29.6
04:40 1020 30.12 849 25.07 2.7 36.9 77 -0.9 30.3
04:45 1020 30.12 849 25.07 2.4 36.3 77 -1.3 29.7
04:50 1020 30.12 849 25.07 2.3 36.1 77 -1.3 29.7
04:55 1020 30.12 849 25.07 2.2 36 77 -1.4 29.5
05:00 1020 30.12 849 25.07 2.5 36.4 74 -1.7 29
05:05 1020 30.12 849 25.07 2.7 36.9 75 -1.3 29.6
05:10 1020 30.12 849 25.07 2.6 36.7 75 -1.4 29.5
05:15 1019 30.09 849 25.07 2.6 36.7 75 -1.4 29.6
05:20 1019 30.09 848 25.04 2.5 36.4 76 -1.4 29.5
05:25 1019 30.09 848 25.04 2.5 36.5 73 -1.8 28.7
05:30 1019 30.09 848 25.04 2.6 36.7 75 -1.5 29.4
05:35 1019 30.09 848 25.04 2.4 36.4 74 -1.7 29
05:40 1019 30.09 848 25.04 3.1 37.6 62 -3.4 25.9
05:45 1019 30.09 848 25.04 4.2 39.6 60 -2.9 26.8
05:50 1019 30.09 848 25.04 4.4 40 61 -2.5 27.5
05:55 1019 30.09 848 25.04 4.2 39.5 65 -1.9 28.6
06:00 1019 30.09 848 25.04 3.5 38.2 69 -1.6 29.1
06:05 1019 30.09 848 25.04 3.1 37.5 71 -1.7 28.9
06:10 1019 30.09 848 25.04 3 37.5 68 -2.3 27.9
06:15 1019 30.09 848 25.04 3.3 37.9 65 -2.7 27.2
06:20 1018 30.06 848 25.04 4 39.2 58 -3.6 25.5
06:25 1018 30.06 848 25.04 4.6 40.3 56 -3.3 26
06:30 1018 30.06 848 25.04 4.7 40.5 55 -3.5 25.6
06:35 1018 30.06 847 25.01 4.7 40.5 57 -3.1 26.4
06:40 1018 30.06 847 25.01 4.5 40.1 56 -3.5 25.6
06:45 1018 30.06 847 25.01 4.6 40.2 56 -3.5 25.7
06:50 1018 30.06 847 25.01 4.5 40.2 56 -3.5 25.7
06:55 1018 30.06 847 25.01 4.5 40.1 55 -3.8 25.2
07:00 1018 30.06 847 25.01 4.8 40.6 52 -4.3 24.2
07:05 1018 30.06 847 25.01 5.1 41.2 51 -4.1 24.6
07:10 1018 30.06 847 25.01 5 41 54 -3.6 25.5
07:15 1018 30.06 847 25.01 4.7 40.5 56 -3.4 25.8
07:20 1018 30.06 847 25.01 4.6 40.4 55 -3.7 25.3
07:25 1018 30.06 847 25.01 4.8 40.7 56 -3.3 26
07:30 1018 30.06 847 25.01 4.8 40.6 56 -3.4 25.9
07:35 1018 30.06 847 25.01 4.7 40.5 56 -3.4 25.9
07:40 1018 30.06 847 25.01 4.7 40.5 56 -3.3 26
07:45 1018 30.06 847 25.01 4.6 40.3 55 -3.5 25.6
07:50 1017 30.03 847 25.01 4.7 40.5 54 -3.8 25.1
07:55 1017 30.03 847 25.01 4.8 40.7 53 -3.8 25.1
08:00 1017 30.03 847 25.01 4.8 40.7 53 -3.8 25.1
08:05 1017 30.03 847 25.01 4.8 40.7 54 -3.8 25.2
08:10 1017 30.03 847 25.01 4.8 40.6 53 -4 24.9
08:15 1017 30.03 846 24.98 4.8 40.6 54 -3.8 25.2
08:20 1017 30.03 846 24.98 4.7 40.5 54 -3.8 25.1
08:25 1017 30.03 846 24.98 4.7 40.4 54 -3.8 25.2
08:30 1017 30.03 846 24.98 4.6 40.3 55 -3.6 25.6
08:35 1017 30.03 846 24.98 4.5 40.1 56 -3.6 25.5
08:40 1017 30.03 846 24.98 4.5 40 55 -3.7 25.3
08:45 1017 30.03 846 24.98 4.4 39.9 56 -3.5 25.7
08:50 1017 30.03 846 24.98 4.3 39.7 56 -3.6 25.5
08:55 1017 30.03 846 24.98 4.2 39.6 57 -3.7 25.4
09:00 1017 30.03 846 24.98 4.3 39.8 55 -4 24.8
09:05 1017 30.03 846 24.98 4.4 40 55 -3.8 25.2
09:10 1017 30.03 846 24.98 4.5 40.1 55 -3.7 25.3
09:15 1016 30 846 24.98 4.5 40 55 -3.7 25.4
09:20 1016 30 846 24.98 4.4 40 54 -4.1 24.7
09:25 1016 30 845 24.95 4.6 40.3 54 -3.8 25.1
09:30 1016 30 845 24.95 4.5 40.2 55 -3.6 25.5
09:35 1016 30 845 24.95 4.5 40.1 53 -4.1 24.6
09:40 1016 30 845 24.95 4.7 40.4 52 -4.3 24.2
09:45 1016 30 845 24.95 4.8 40.6 54 -3.7 25.4
09:50 1016 30 845 24.95 4.6 40.3 53 -4.1 24.7
09:55 1015 29.97 845 24.95 4.9 40.8 53 -4 24.8
10:00 1015 29.97 845 24.95 5 40.9 52 -4 24.8
10:05 1015 29.97 845 24.95 5 41.1 52 -4 24.9
10:10 1015 29.97 845 24.95 5 41 53 -3.8 25.2
10:15 1015 29.97 845 24.95 5 41 54 -3.6 25.6
10:20 1015 29.97 845 24.95 5 41 54 -3.4 25.8
10:25 1015 29.97 845 24.95 5 41 52 -3.9 25
10:30 1015 29.97 845 24.95 5.2 41.4 52 -3.7 25.3
10:35 1015 29.97 845 24.95 5.2 41.4 53 -3.6 25.5
10:40 1015 29.97 844 24.92 5.1 41.3 54 -3.5 25.7
10:45 1015 29.97 844 24.92 5.1 41.1 53 -3.7 25.3
10:50 1015 29.97 844 24.92 5.1 41.2 52 -4 24.9
10:55 1015 29.97 844 24.92 5.3 41.5 51 -4.1 24.7
11:00 1015 29.97 844 24.92 5.4 41.8 50 -4.1 24.5
11:05 1015 29.97 844 24.92 5.5 41.8 50 -4.1 24.7
11:10 1015 29.97 844 24.92 5.6 42 49 -4.3 24.3
11:15 1015 29.97 844 24.92 5.7 42.3 49 -4.3 24.3
11:20 1015 29.97 844 24.92 5.8 42.4 49 -4.2 24.5
11:25 1015 29.97 844 24.92 5.7 42.3 49 -4.1 24.6
11:30 1015 29.97 844 24.92 5.6 42.1 50 -4.1 24.6
11:35 1014 29.94 844 24.92 5.6 42 50 -3.9 24.9
11:40 1014 29.94 844 24.92 5.5 41.9 50 -4 24.8
11:45 1014 29.94 843 24.89 5.5 41.8 50 -4.3 24.3
11:50 1014 29.94 843 24.89 5.7 42.2 49 -4.2 24.5
11:55 1014 29.94 843 24.89 5.7 42.3 48 -4.4 24.1
12:00 1014 29.94 843 24.89 5.9 42.6 47 -4.4 24
12:05 1014 29.94 843 24.89 6 42.9 47 -4.3 24.2
12:10 1013 29.91 843 24.89 5.9 42.7 49 -3.8 25.1
12:15 1013 29.91 842 24.86 5.8 42.5 49 -4 24.7
12:20 1013 29.91 842 24.86 5.9 42.6 49 -3.9 24.9
12:25 1013 29.91 842 24.86 6.1 42.9 48 -4.1 24.5
12:30 1013 29.91 842 24.86 6.2 43.2 47 -4.2 24.5
12:35 1013 29.91 842 24.86 6.2 43.2 48 -4 24.8
12:40 1013 29.91 842 24.86 6.3 43.3 48 -3.9 25
12:45 1013 29.91 842 24.86 6.1 42.9 49 -3.8 25.2
12:50 1013 29.91 842 24.86 6.1 43 49 -3.8 25.2
12:55 1012 29.88 842 24.86 6.2 43.2 47 -4.3 24.3
13:00 1012 29.88 842 24.86 6.4 43.6 47 -4.1 24.7
13:05 1012 29.88 841 24.83 6.4 43.6 47 -4 24.8
13:10 1012 29.88 841 24.83 6.4 43.6 48 -3.9 25
13:15 1012 29.88 841 24.83 6.3 43.3 49 -3.6 25.5
13:20 1012 29.88 841 24.83 6.1 42.9 51 -3.4 25.9
13:25 1012 29.88 841 24.83 6.1 42.9 48 -4 24.8
13:30 1012 29.88 841 24.83 6.3 43.4 48 -3.9 25
13:35 1012 29.88 841 24.83 6.4 43.5 48 -3.7 25.3
13:40 1011 29.85 841 24.83 6.4 43.5 49 -3.6 25.6
13:45 1011 29.85 841 24.83 6.4 43.6 50 -3.3 26
13:50 1011 29.85 841 24.83 6.3 43.4 51 -3 26.7
13:55 1011 29.85 840 24.81 6.2 43.2 52 -2.9 26.9
14:00 1011 29.85 840 24.81 6.2 43.2 51 -3.1 26.3
14:05 1011 29.85 840 24.81 6.3 43.4 51 -3 26.5
14:10 1011 29.85 840 24.81 6.4 43.6 50 -3.2 26.2
14:15 1011 29.85 840 24.81 6.6 43.9 50 -3.2 26.3
14:20 1011 29.85 840 24.81 6.6 43.9 49 -3.2 26.2
14:25 1010 29.83 840 24.81 6.7 44 50 -3.1 26.4
14:30 1010 29.83 840 24.81 6.8 44.2 49 -3.2 26.2
14:35 1010 29.83 839 24.78 6.9 44.4 48 -3.2 26.2
14:40 1010 29.83 839 24.78 7.1 44.7 48 -3.2 26.2
14:45 1010 29.83 839 24.78 7.2 44.9 49 -2.8 27
14:50 1010 29.83 839 24.78 6.9 44.5 51 -2.6 27.4
14:55 1010 29.83 839 24.78 6.9 44.3 51 -2.5 27.5
15:00 1010 29.83 839 24.78 6.7 44.1 52 -2.5 27.5
15:05 1010 29.83 839 24.78 6.7 44.1 51 -2.6 27.3
15:10 1010 29.83 839 24.78 6.7 44.1 52 -2.5 27.4
15:15 1010 29.83 839 24.78 6.8 44.2 52 -2.4 27.7
15:20 1010 29.83 839 24.78 6.7 44.1 52 -2.5 27.6
15:25 1010 29.83 839 24.78 6.8 44.2 52 -2.4 27.7
15:30 1010 29.83 839 24.78 6.7 44.1 52 -2.5 27.6
15:35 1010 29.83 839 24.78 6.7 44.1 52 -2.4 27.6
15:40 1010 29.83 839 24.78 6.8 44.2 51 -2.6 27.3
15:45 1010 29.83 839 24.78 6.9 44.5 51 -2.6 27.4
15:50 1010 29.83 839 24.78 7 44.6 50 -2.6 27.3
15:55 1010 29.83 839 24.78 7.2 44.9 50 -2.5 27.5
16:00 1010 29.83 839 24.78 7 44.5 51 -2.4 27.7
16:05 1010 29.83 839 24.78 6.9 44.5 51 -2.4 27.7
16:10 1010 29.83 839 24.78 7.1 44.9 50 -2.6 27.3
16:15 1010 29.83 839 24.78 7.4 45.3 49 -2.7 27.1
16:20 1010 29.83 839 24.78 7.5 45.6 49 -2.4 27.7
16:25 1010 29.83 839 24.78 7.5 45.4 49 -2.6 27.3
16:30 1010 29.83 839 24.78 7.5 45.5 50 -2.2 28
16:35 1010 29.83 839 24.78 7.4 45.3 49 -2.5 27.6
16:40 1010 29.83 839 24.78 7.5 45.6 50 -2.2 28.1
16:45 1010 29.83 839 24.78 7.4 45.4 50 -2.3 27.9
16:50 1010 29.83 839 24.78 7.5 45.5 50 -2.3 27.8
16:55 1010 29.83 839 24.78 7.3 45.2 52 -1.9 28.6
17:00 1010 29.83 839 24.78 7.1 44.8 51 -2.3 27.9
17:05 1010 29.83 839 24.78 7.2 45 52 -1.9 28.5
17:10 1010 29.83 839 24.78 7.2 45 51 -2.1 28.2
17:15 1010 29.83 839 24.78 7.2 44.9 51 -2.2 28.1
17:20 1010 29.83 839 24.78 7.3 45.1 51 -2 28.3
17:25 1010 29.83 839 24.78 7.2 45 52 -2 28.4
17:30 1010 29.83 839 24.78 7.3 45.2 51 -2.1 28.2
17:35 1010 29.83 839 24.78 7.2 44.9 53 -1.8 28.8
17:40 1010 29.83 839 24.78 7 44.5 53 -1.8 28.7
17:45 1010 29.83 839 24.78 7 44.6 52 -2.1 28.2
17:50 1010 29.83 839 24.78 7.2 44.9 52 -2 28.5
17:55 1010 29.83 839 24.78 7.2 44.9 53 -1.9 28.6
18:00 1010 29.83 839 24.78 7.1 44.7 54 -1.7 28.9
18:05 1010 29.83 839 24.78 6.9 44.5 53 -1.9 28.5
18:10 1010 29.83 839 24.78 7 44.6 53 -1.8 28.7
18:15 1010 29.83 839 24.78 6.9 44.5 54 -1.8 28.7
18:20 1010 29.83 839 24.78 6.9 44.4 54 -1.8 28.8
18:25 1010 29.83 839 24.78 6.9 44.4 54 -1.9 28.6
18:30 1010 29.83 839 24.78 6.8 44.3 55 -1.6 29
18:35 1010 29.83 839 24.78 6.8 44.2 55 -1.7 28.9
18:40 1010 29.83 839 24.78 6.9 44.3 53 -1.9 28.5
18:45 1010 29.83 839 24.78 6.9 44.5 54 -1.6 29.1
18:50 1010 29.83 839 24.78 7 44.6 53 -1.9 28.5
18:55 1010 29.83 839 24.78 7.2 44.9 53 -1.7 29
19:00 1010 29.83 839 24.78 7.1 44.8 54 -1.6 29.2
19:05 1010 29.83 839 24.78 7.1 44.8 54 -1.5 29.2
19:10 1010 29.83 839 24.78 6.9 44.4 55 -1.4 29.5
19:15 1010 29.83 839 24.78 7 44.7 55 -1.4 29.4
19:20 1010 29.83 839 24.78 6.9 44.4 56 -1.2 29.8
19:25 1010 29.83 839 24.78 6.8 44.3 54 -1.7 29
19:30 1010 29.83 839 24.78 7.1 44.8 54 -1.5 29.4
19:35 1010 29.83 839 24.78 7.1 44.7 55 -1.2 29.8
19:40 1010 29.83 839 24.78 7 44.5 55 -1.5 29.3
19:45 1010 29.83 839 24.78 7 44.6 56 -1.2 29.8
19:50 1009 29.8 839 24.78 6.9 44.4 55 -1.6 29.1
19:55 1010 29.83 839 24.78 7 44.6 55 -1.3 29.7
20:00 1010 29.83 839 24.78 6.9 44.5 55 -1.4 29.6
20:05 1010 29.83 839 24.78 7 44.6 55 -1.4 29.6
20:10 1010 29.83 839 24.78 6.8 44.3 57 -1 30.3
20:15 1010 29.83 839 24.78 6.7 44 57 -1.2 29.8
20:20 1010 29.83 839 24.78 6.7 44 58 -0.9 30.4
20:25 1010 29.83 839 24.78 6.6 43.8 58 -1.1 30
20:30 1010 29.83 839 24.78 6.7 44.1 57 -1.3 29.7
20:35 1010 29.83 839 24.78 6.8 44.2 57 -1.2 29.9
20:40 1010 29.83 839 24.78 6.8 44.2 57 -1.1 30
20:45 1010 29.83 839 24.78 6.7 44.1 58 -1 30.2
20:50 1010 29.83 839 24.78 6.7 44.1 58 -1 30.3
20:55 1010 29.83 839 24.78 6.7 44.1 58 -0.8 30.5
21:00 1010 29.83 839 24.78 6.7 44.1 59 -0.7 30.7
21:05 1010 29.83 839 24.78 6.6 43.9 59 -0.8 30.6
21:10 1010 29.83 839 24.78 6.7 44.1 58 -0.9 30.4
21:15 1010 29.83 839 24.78 6.8 44.2 59 -0.6 30.9
21:20 1010 29.83 839 24.78 6.8 44.2 59 -0.7 30.7
21:25 1010 29.83 839 24.78 6.7 44.1 59 -0.7 30.7
21:30 1010 29.83 839 24.78 6.7 44.1 59 -0.7 30.7
21:35 1010 29.83 839 24.78 6.7 44.1 59 -0.7 30.7
21:40 1010 29.83 839 24.78 6.8 44.2 58 -0.8 30.5
21:45 1010 29.83 839 24.78 6.9 44.4 58 -0.7 30.8
21:50 1010 29.83 839 24.78 6.8 44.3 59 -0.6 31
21:55 1010 29.83 839 24.78 6.7 44 60 -0.5 31
22:00 1010 29.83 839 24.78 6.5 43.7 59 -0.9 30.4
22:05 1010 29.83 839 24.78 6.5 43.7 58 -1.1 30.1
22:10 1010 29.83 839 24.78 6.5 43.7 58 -1 30.1
22:15 1010 29.83 839 24.78 6.5 43.6 58 -1.2 29.8
22:20 1010 29.83 839 24.78 6.5 43.6 58 -1.2 29.9
22:25 1010 29.83 839 24.78 6.4 43.5 58 -1.2 29.8
22:30 1010 29.83 839 24.78 6.3 43.3 59 -1.2 29.9
22:35 1010 29.83 839 24.78 6.2 43.2 60 -1.1 30.1
22:40 1010 29.83 839 24.78 6.1 43 60 -1 30.2
22:45 1010 29.83 839 24.78 6.1 43.1 60 -1 30.2
22:50 1010 29.83 839 24.78 6.1 43.1 60 -0.9 30.3
22:55 1010 29.83 839 24.78 6.2 43.2 61 -0.8 30.6
23:00 1010 29.83 839 24.78 6.2 43.1 62 -0.5 31
23:05 1010 29.83 839 24.78 6.1 42.9 63 -0.5 31.1
23:10 1010 29.83 839 24.78 6 42.8 63 -0.5 31
23:15 1010 29.83 839 24.78 6 42.7 63 -0.5 31
23:20 1010 29.83 839 24.78 6 42.7 63 -0.5 31.1
23:25 1009 29.8 839 24.78 6 42.7 63 -0.5 31.1
23:30 1009 29.8 839 24.78 6 42.7 63 -0.6 30.9
23:35 1009 29.8 839 24.78 6 42.9 62 -0.6 30.9
23:40 1009 29.8 838 24.75 6.1 43 61 -0.7 30.7
23:45 1009 29.8 838 24.75 6.3 43.4 61 -0.6 30.8
23:50 1009 29.8 838 24.75 6.4 43.5 61 -0.7 30.7
23:55 1009 29.8 838 24.75 6.4 43.6 61 -0.6 30.9
24:00 1009 29.8 838 24.75 6.5 43.6 61 -0.5 31.1